Time;durP1;ratioP1;P1;durP2;ratioP2;P2;SDS_P1;SDS_P2;PMS_P1;PMS_P2;Temp;Humidity;BMP_temperature;BMP_pressure;BME280_temperature;BME280_humidity;BME280_pressure;Samples;Min_cycle;Max_cycle;Signal;HPM_P1;HPM_P2
2024/01/18 00:01:05;;;;;;;36.40;21.43;;;0.40;99.90;;;-141.84;100.00;115757.06;5078439;28;20310;-60
2024/01/18 00:03:33;;;;;;;39.80;21.93;;;0.40;99.90;;;-141.84;100.00;115757.06;5062663;28;20851;-61
2024/01/18 00:06:04;;;;;;;36.00;20.97;;;0.40;99.90;;;-141.84;100.00;115757.06;5072844;28;20277;-60
2024/01/18 00:08:32;;;;;;;34.70;20.70;;;0.40;99.90;;;-141.84;100.00;113625.81;5073650;28;20220;-61
2024/01/18 00:11:01;;;;;;;36.37;22.00;;;0.40;99.90;;;-141.84;100.00;112028.13;5062497;28;20283;-60
2024/01/18 00:13:30;;;;;;;36.23;21.33;;;0.40;99.90;;;-141.84;100.00;111495.69;5056507;28;20217;-59
2024/01/18 00:15:58;;;;;;;37.20;21.03;;;0.40;99.90;;;-141.84;100.00;110697.16;5059526;28;20251;-60
2024/01/18 00:18:26;;;;;;;34.53;20.27;;;0.40;99.90;;;-141.84;100.00;111229.50;5069369;28;20232;-60
2024/01/18 00:20:55;;;;;;;32.43;20.30;;;0.40;99.90;;;-141.84;100.00;109366.66;5070362;28;20702;-60
2024/01/18 00:23:25;;;;;;;35.77;20.03;;;0.30;99.90;;;-141.84;100.00;108036.56;5063844;28;20220;-60
2024/01/18 00:25:53;;;;;;;30.00;18.43;;;0.30;99.90;;;-141.84;100.00;108036.56;5091688;28;20195;-60
2024/01/18 00:28:22;;;;;;;29.27;17.17;;;0.30;99.90;;;-141.84;100.00;110164.91;5091064;28;20236;-60
2024/01/18 00:30:50;;;;;;;33.60;19.87;;;0.20;99.90;;;-141.84;100.00;111495.69;5090616;28;20222;-60
2024/01/18 00:33:18;;;;;;;32.67;20.00;;;0.20;99.90;;;-141.84;100.00;112028.13;5090558;28;20251;-60
2024/01/18 00:35:48;;;;;;;30.20;18.27;;;0.20;99.90;;;-141.84;100.00;111229.50;5090585;28;20234;-59
2024/01/18 00:38:16;;;;;;;28.60;17.30;;;0.20;99.90;;;-141.84;100.00;112028.13;5090701;28;20199;-59
2024/01/18 00:40:46;;;;;;;28.07;17.87;;;0.20;99.90;;;-141.84;100.00;112294.34;5090864;28;20194;-59
2024/01/18 00:43:14;;;;;;;28.37;17.93;;;0.20;99.90;;;-141.84;100.00;112028.13;5090311;28;20226;-60
2024/01/18 00:45:43;;;;;;;28.50;17.23;;;0.20;99.90;;;-141.84;100.00;112560.63;5090247;28;20310;-62
2024/01/18 00:48:11;;;;;;;29.23;17.17;;;0.20;99.90;;;-141.84;100.00;114158.53;5090322;28;20306;-59
2024/01/18 00:50:40;;;;;;;31.40;18.17;;;0.20;99.90;;;-141.84;100.00;109366.66;5089839;28;20251;-59
2024/01/18 00:53:08;;;;;;;26.53;16.63;;;0.20;99.90;;;-141.84;100.00;106175.19;5082958;28;20275;-59
2024/01/18 00:55:36;;;;;;;28.00;16.43;;;0.20;99.90;;;-141.84;100.00;105377.72;5055779;28;20225;-59
2024/01/18 00:58:06;;;;;;;23.50;16.33;;;0.30;99.90;;;-141.84;99.84;100330.69;5066164;28;20236;-61
2024/01/18 01:00:34;;;;;;;25.07;16.80;;;0.30;99.90;;;-141.84;98.57;97411.59;5066089;28;20222;-60
2024/01/18 01:03:03;;;;;;;24.30;16.10;;;0.40;99.90;;;-141.84;99.05;97146.31;5073105;28;20306;-62
2024/01/18 01:05:31;;;;;;;26.30;16.60;;;0.20;99.90;;;-141.84;99.79;100065.22;5089036;28;20235;-61
2024/01/18 01:08:00;;;;;;;24.17;16.43;;;0.30;99.90;;;-141.84;99.12;97942.19;5090719;28;20231;-60
2024/01/18 01:10:28;;;;;;;24.97;16.63;;;0.20;99.90;;;-141.84;98.88;96881.06;5089971;28;20225;-60
2024/01/18 01:12:56;;;;;;;25.67;16.37;;;0.20;99.90;;;-141.84;99.10;97676.88;5066487;28;20231;-60
2024/01/18 01:15:26;;;;;;;27.63;17.00;;;0.20;99.90;;;-141.84;100.00;100330.69;5077384;28;20224;-59
2024/01/18 01:17:54;;;;;;;25.13;16.63;;;0.10;99.90;;;-141.84;100.00;101923.81;5090139;28;20288;-59
2024/01/18 01:20:23;;;;;;;25.57;16.73;;;0.10;99.90;;;-141.84;100.00;101658.25;5090189;28;20198;-59
2024/01/18 01:22:51;;;;;;;26.40;17.30;;;0.20;99.90;;;-141.84;98.81;97676.88;5091143;28;20626;-59
2024/01/18 01:25:20;;;;;;;25.03;17.03;;;0.20;99.90;;;-141.84;98.87;97411.59;5090110;28;20223;-59
2024/01/18 01:27:48;;;;;;;26.93;16.40;;;0.10;99.90;;;-141.84;99.59;98207.50;5081771;28;20700;-58
2024/01/18 01:30:16;;;;;;;28.53;17.63;;;0.10;99.90;;;-141.84;100.00;99799.78;5090305;28;20239;-58
2024/01/18 01:32:46;;;;;;;26.67;17.87;;;0.10;99.90;;;-141.84;99.77;100065.22;5089607;28;20230;-59
2024/01/18 01:35:15;;;;;;;27.00;17.37;;;0.10;99.90;;;-141.84;98.50;97676.88;5089806;28;20191;-60
2024/01/18 01:37:43;;;;;;;24.90;16.63;;;0.20;99.90;;;-141.84;98.49;95555.09;5090096;28;20300;-59
2024/01/18 01:40:12;;;;;;;25.33;16.97;;;0.10;99.90;;;-141.84;99.31;97942.19;5089568;28;20249;-59
2024/01/18 01:42:40;;;;;;;26.07;16.97;;;0.20;99.90;;;-141.84;97.81;94759.69;5089867;28;20234;-59
2024/01/18 01:45:09;;;;;;;25.63;16.57;;;0.20;99.90;;;-141.84;97.04;92374.47;5089846;28;20232;-60
2024/01/18 01:47:38;;;;;;;24.90;17.60;;;0.10;99.90;;;-141.84;97.19;92109.53;5089714;28;20225;-60
2024/01/18 01:50:09;;;;;;;25.13;17.60;;;0.10;99.90;;;-141.84;97.10;92374.47;5090231;28;20277;-60
2024/01/18 01:52:42;;;;;;;27.20;17.77;;;0.10;99.90;;;-141.84;99.33;96350.63;5089523;28;20223;-60
2024/01/18 01:55:13;;;;;;;25.20;17.03;;;0.10;99.90;;;-141.84;99.12;97942.19;5081430;28;20302;-60
2024/01/18 01:57:46;;;;;;;26.07;16.93;;;-0.10;99.90;;;-141.84;99.00;97146.31;5089772;28;20216;-59
2024/01/18 02:00:17;;;;;;;28.17;17.47;;;0.10;99.90;;;-141.84;99.30;98738.19;5089183;28;20649;-59
2024/01/18 02:02:46;;;;;;;23.73;16.23;;;0.00;99.90;;;-141.84;95.84;90785.09;5093566;28;20227;-60
2024/01/18 02:05:17;;;;;;;24.40;16.60;;;0.20;99.90;;;-141.84;96.36;89196.38;5093347;28;20659;-59
2024/01/18 02:07:46;;;;;;;28.33;17.53;;;0.10;99.90;;;-141.84;98.49;94759.69;5091594;28;20886;-59
2024/01/18 02:10:14;;;;;;;22.97;16.17;;;0.10;99.90;;;-141.84;100.00;99268.97;5088300;28;20370;-59
2024/01/18 02:12:45;;;;;;;22.63;15.33;;;0.10;99.90;;;-141.84;99.49;99268.97;5092893;28;20949;-59
2024/01/18 02:15:14;;;;;;;24.07;16.10;;;0.00;99.90;;;-141.84;99.48;98207.50;5093641;28;20223;-59
2024/01/18 02:17:42;;;;;;;24.57;16.37;;;0.00;99.90;;;-141.84;100.00;100065.22;5092272;28;20233;-60
2024/01/18 02:20:12;;;;;;;24.23;16.60;;;0.00;99.90;;;-141.84;98.85;96881.06;5093083;28;20214;-61
2024/01/18 02:22:44;;;;;;;24.03;16.83;;;0.10;99.90;;;-141.84;99.70;99003.56;5092707;28;20224;-59
2024/01/18 02:25:27;;;;;;;24.37;16.37;;;0.00;99.90;;;-141.84;98.72;96881.06;5089094;28;20619;-59
2024/01/18 02:27:56;;;;;;;25.73;17.00;;;0.10;99.90;;;-141.84;96.52;91579.72;5085067;28;20719;-59
2024/01/18 02:30:25;;;;;;;25.33;15.97;;;-0.20;99.90;;;-141.84;96.08;88931.63;5092983;28;20228;-59
2024/01/18 02:32:54;;;;;;;24.37;16.27;;;0.00;99.90;;;-141.84;97.42;92109.53;5094075;28;20227;-59
2024/01/18 02:35:22;;;;;;;24.73;16.80;;;0.00;99.90;;;-141.84;98.14;95820.25;5094179;28;20221;-59
2024/01/18 02:37:51;;;;;;;22.60;15.87;;;0.00;99.90;;;-141.84;96.97;91579.72;5093761;28;20733;-59
2024/01/18 02:40:20;;;;;;;24.37;15.73;;;0.00;99.90;;;-141.84;93.18;81526.28;5093045;28;20232;-59
2024/01/18 02:42:49;;;;;;;25.07;15.87;;;0.10;99.90;;;-141.84;92.67;78092.72;5092885;28;20626;-60
2024/01/18 02:45:18;;;;;;;26.93;16.47;;;0.10;99.90;;;-141.84;91.99;75717.34;5092625;28;20235;-59
2024/01/18 02:47:47;;;;;;;23.17;16.00;;;0.10;99.90;;;-141.84;90.85;72025.13;5084416;28;20231;-59
2024/01/18 02:50:15;;;;;;;24.93;15.80;;;0.10;99.90;;;-141.84;90.93;68863.09;5092766;28;20207;-60
2024/01/18 02:52:43;;;;;;;25.83;16.50;;;0.30;99.90;;;-141.84;91.87;72816.03;5093298;28;20194;-61
2024/01/18 02:55:12;;;;;;;24.07;16.33;;;0.00;99.90;;;-141.84;91.35;72288.75;5092786;28;20295;-59
2024/01/18 02:57:41;;;;;;;25.43;16.97;;;0.00;99.90;;;-141.84;92.43;75189.69;5056700;28;20264;-59
2024/01/18 03:00:13;;;;;;;26.53;17.33;;;0.00;99.90;;;-141.84;91.26;70970.84;5092837;28;20227;-59
2024/01/18 03:02:41;;;;;;;24.20;16.30;;;0.00;99.90;;;-141.84;92.01;74134.56;5092439;28;20917;-60
2024/01/18 03:05:09;;;;;;;27.00;16.97;;;0.00;99.90;;;-141.84;92.40;76772.88;5092481;28;20314;-59
2024/01/18 03:07:38;;;;;;;25.47;16.93;;;0.00;99.90;;;-141.84;91.69;72025.13;5092376;28;20605;-59
2024/01/18 03:10:08;;;;;;;25.30;16.70;;;0.00;99.90;;;-141.84;89.71;65440.38;5092212;28;20227;-60
2024/01/18 03:12:37;;;;;;;26.67;17.10;;;0.10;99.90;;;-141.84;89.46;62283.53;5091440;28;20255;-60
2024/01/18 03:15:13;;;;;;;24.77;16.87;;;0.10;99.90;;;-141.84;90.94;67809.63;5083797;28;20662;-60
2024/01/18 03:17:41;;;;;;;29.10;17.73;;;-0.10;99.90;;;-141.84;91.45;71234.38;5092221;28;20809;-59
2024/01/18 03:20:11;;;;;;;26.33;17.43;;;0.00;99.90;;;-141.84;90.88;70707.31;5092091;28;20204;-60
2024/01/18 03:22:40;;;;;;;25.00;17.43;;;0.00;99.90;;;-141.84;91.45;70970.84;5092367;28;20196;-62
2024/01/18 03:25:09;;;;;;;29.53;18.93;;;-0.10;99.90;;;-141.84;92.84;75453.50;5091629;28;20272;-60
2024/01/18 03:27:38;;;;;;;25.47;17.33;;;-0.10;99.90;;;-141.84;93.06;77564.72;5091765;28;20231;-60
2024/01/18 03:30:08;;;;;;;24.57;17.67;;;-0.10;99.90;;;-141.84;88.42;63861.66;5091459;28;20247;-59
2024/01/18 03:32:38;;;;;;;26.50;18.37;;;0.00;99.90;;;-141.84;85.71;41563.59;5091024;28;20239;-59
2024/01/18 03:35:07;;;;;;;29.47;18.73;;;0.00;99.90;;;-141.84;87.12;47322.81;5083889;28;20250;-60
2024/01/18 03:37:36;;;;;;;27.13;18.30;;;0.00;99.90;;;-141.84;89.27;60180.38;5092308;28;20216;-58
2024/01/18 03:40:08;;;;;;;25.93;17.43;;;-0.10;99.90;;;-141.84;88.67;57290.34;5091259;28;20225;-60
2024/01/18 03:42:41;;;;;;;30.10;18.57;;;-0.10;99.90;;;-141.84;89.91;64387.81;5075545;28;20300;-59
2024/01/18 03:45:10;;;;;;;24.63;17.53;;;-0.10;99.90;;;-141.84;88.93;60443.22;5064693;28;20244;-58
2024/01/18 03:47:40;;;;;;;27.30;18.83;;;-0.10;99.90;;;-141.84;86.29;43656.88;5064108;28;20259;-59
2024/01/18 03:50:10;;;;;;;23.57;16.40;;;-0.10;99.90;;;-141.84;86.93;45227.56;5072196;28;20189;-59
2024/01/18 03:52:38;;;;;;;27.10;17.30;;;-0.10;99.90;;;-141.84;88.74;56765.13;5070238;28;20219;-59
2024/01/18 03:55:07;;;;;;;27.27;18.70;;;-0.10;99.90;;;-141.84;90.29;64914.06;5083609;28;20774;-60
2024/01/18 03:57:35;;;;;;;28.80;18.07;;;-0.20;99.90;;;-141.84;91.43;70443.78;5091349;28;20689;-60
2024/01/18 04:00:06;;;;;;;27.03;18.67;;;-0.20;99.90;;;-141.84;91.22;71234.38;5091035;28;20735;-59
2024/01/18 04:02:34;;;;;;;28.13;19.23;;;-0.20;99.90;;;-141.84;91.58;70970.84;5091287;28;20223;-59
2024/01/18 04:05:05;;;;;;;27.53;17.67;;;-0.20;99.90;;;-141.84;91.80;72552.38;5091534;28;20230;-60
2024/01/18 04:07:33;;;;;;;28.83;19.37;;;-0.20;99.90;;;-141.84;91.92;73607.09;5090881;28;20223;-60
2024/01/18 04:10:01;;;;;;;25.00;16.83;;;-0.20;99.90;;;-141.84;92.61;74925.88;5066803;28;20679;-60
2024/01/18 04:12:30;;;;;;;27.63;17.93;;;-0.20;99.90;;;-141.84;91.08;71761.53;5065543;28;20224;-60
2024/01/18 04:14:58;;;;;;;25.33;17.60;;;-0.20;99.90;;;-141.84;90.83;69653.38;5071164;28;20225;-60
2024/01/18 04:17:27;;;;;;;24.03;17.17;;;-0.30;99.90;;;-141.84;89.57;63335.53;5071087;28;20567;-60
2024/01/18 04:19:55;;;;;;;25.30;17.57;;;-0.30;99.90;;;-141.84;90.15;64124.72;5071735;28;20249;-59
2024/01/18 04:22:25;;;;;;;26.90;18.00;;;-0.30;99.90;;;-141.84;91.25;69916.81;5059605;28;20254;-60
2024/01/18 04:24:54;;;;;;;28.37;17.50;;;-0.30;99.90;;;-141.84;90.75;68072.97;5079198;28;20223;-59
2024/01/18 04:27:22;;;;;;;28.10;18.77;;;-0.30;99.90;;;-141.84;89.72;62809.50;5080385;28;20598;-59
2024/01/18 04:29:50;;;;;;;25.40;17.80;;;-0.30;99.90;;;-141.84;90.26;64914.06;5066874;28;20227;-60
2024/01/18 04:32:19;;;;;;;24.47;17.23;;;-0.40;99.90;;;-141.84;91.80;71234.38;5063035;28;20285;-60
2024/01/18 04:34:47;;;;;;;27.23;18.67;;;-0.40;99.90;;;-141.84;92.01;73870.81;5061059;28;20235;-59
2024/01/18 04:37:15;;;;;;;25.03;17.77;;;-0.30;99.90;;;-141.84;90.96;69653.38;5067491;28;20223;-59
2024/01/18 04:39:45;;;;;;;27.17;18.27;;;-0.40;99.90;;;-141.84;89.13;60706.06;5063252;28;20224;-60
2024/01/18 04:42:14;;;;;;;26.60;17.77;;;-0.30;99.90;;;-141.84;89.44;62020.59;5077146;28;20227;-60
2024/01/18 04:44:43;;;;;;;26.87;18.10;;;-0.30;99.90;;;-141.84;90.08;64914.06;5084067;28;20281;-59
2024/01/18 04:47:11;;;;;;;26.70;18.30;;;-0.30;99.90;;;-141.84;91.59;70970.84;5090623;28;20298;-60
2024/01/18 04:49:39;;;;;;;28.93;18.37;;;-0.20;99.90;;;-141.84;92.45;75453.50;5090351;28;20246;-60
2024/01/18 04:52:08;;;;;;;28.93;19.00;;;-0.30;99.90;;;-141.84;90.34;68336.31;5091016;28;20229;-59
2024/01/18 04:54:36;;;;;;;24.77;17.97;;;-0.20;99.90;;;-141.84;89.73;63598.59;5090162;28;20291;-59
2024/01/18 04:57:06;;;;;;;26.40;17.03;;;-0.30;99.90;;;-141.84;90.70;67019.72;5090340;28;20796;-60
2024/01/18 04:59:35;;;;;;;30.53;19.13;;;-0.30;99.90;;;-141.84;88.60;58078.34;5090430;28;20231;-61
2024/01/18 05:02:03;;;;;;;25.53;18.30;;;-0.30;99.90;;;-141.84;88.89;58341.03;5091476;28;20219;-59
2024/01/18 05:04:31;;;;;;;27.03;17.90;;;-0.30;99.90;;;-141.84;87.42;52303.44;5089711;28;20230;-59
2024/01/18 05:07:00;;;;;;;25.50;17.73;;;-0.40;99.90;;;-141.84;86.92;47584.78;5089962;28;20231;-60
2024/01/18 05:09:28;;;;;;;23.83;18.10;;;-0.20;99.90;;;-141.84;86.55;45751.28;5089687;28;20228;-60
2024/01/18 05:11:57;;;;;;;23.60;16.77;;;-0.30;99.90;;;-141.84;85.36;36543.41;5090867;28;20220;-59
2024/01/18 05:14:26;;;;;;;25.43;18.33;;;-0.20;99.90;;;-141.84;86.16;41040.44;5090571;28;20744;-59
2024/01/18 05:17:03;;;;;;;27.70;18.67;;;-0.30;99.90;;;-141.84;85.73;38239.91;5090603;28;20249;-59
2024/01/18 05:19:31;;;;;;;27.13;18.27;;;-0.30;99.90;;;-141.84;86.38;42348.44;5090155;28;20278;-60
2024/01/18 05:21:59;;;;;;;25.10;17.77;;;-0.20;99.90;;;-141.84;86.48;43395.16;5089842;28;20251;-59
2024/01/18 05:24:28;;;;;;;26.40;17.17;;;-0.30;99.90;;;-141.84;87.38;48370.84;5081874;28;20220;-59
2024/01/18 05:26:56;;;;;;;26.03;17.77;;;-0.30;99.90;;;-141.84;87.76;51254.38;5089723;28;20220;-59
2024/01/18 05:29:25;;;;;;;25.57;16.70;;;-0.30;99.90;;;-141.84;87.99;53090.44;5090142;28;20193;-60
2024/01/18 05:31:55;;;;;;;27.47;18.53;;;-0.30;99.90;;;-141.84;86.83;49943.41;5090453;28;20581;-59
2024/01/18 05:34:23;;;;;;;24.33;16.90;;;-0.20;99.90;;;-141.84;85.85;39816.63;5089785;28;20264;-59
2024/01/18 05:36:51;;;;;;;26.13;17.57;;;-0.30;99.90;;;-141.84;85.57;36284.22;5092433;28;20251;-60
2024/01/18 05:39:20;;;;;;;26.27;17.97;;;-0.20;99.90;;;-141.84;85.45;36786.31;5093622;28;20218;-59
2024/01/18 05:41:48;;;;;;;23.40;16.70;;;-0.30;99.90;;;-141.84;85.41;36698.53;5088053;28;20234;-61
2024/01/18 05:44:16;;;;;;;24.47;16.77;;;-0.30;99.90;;;-141.84;85.41;35149.63;5093968;28;20294;-61
2024/01/18 05:46:46;;;;;;;29.83;18.17;;;-0.20;99.90;;;-141.84;84.68;31770.22;5092887;28;20223;-59
2024/01/18 05:49:14;;;;;;;27.43;17.23;;;-0.20;99.90;;;-141.84;85.90;38919.94;5094194;28;20222;-60
2024/01/18 05:51:43;;;;;;;25.33;17.43;;;-0.20;99.90;;;-141.84;84.83;32573.50;5093601;28;20230;-60
2024/01/18 05:54:11;;;;;;;25.40;17.23;;;-0.20;99.90;;;-141.84;85.81;37849.94;5093784;28;20223;-59
2024/01/18 05:56:40;;;;;;;25.97;17.67;;;-0.30;99.90;;;-141.84;87.35;47322.81;5093577;28;20943;-60
2024/01/18 05:59:08;;;;;;;25.67;17.93;;;-0.30;99.90;;;-141.84;87.51;51254.38;5085891;28;20296;-60
2024/01/18 06:01:36;;;;;;;27.40;18.50;;;-0.20;99.90;;;-141.84;87.24;49157.03;5090664;28;20222;-59
2024/01/18 06:04:06;;;;;;;26.17;17.67;;;-0.20;99.90;;;-141.84;88.07;53352.78;5085397;28;20229;-60
2024/01/18 06:06:35;;;;;;;24.23;18.30;;;-0.30;99.90;;;-141.84;85.82;42086.81;5093028;28;20222;-59
2024/01/18 06:09:03;;;;;;;26.63;17.07;;;-0.30;99.90;;;-141.84;86.13;40255.84;5093967;28;20224;-59
2024/01/18 06:11:32;;;;;;;25.33;17.30;;;-0.30;99.90;;;-141.84;86.37;44703.94;5092957;28;20622;-59
2024/01/18 06:14:00;;;;;;;24.80;17.70;;;-0.30;99.90;;;-141.84;86.76;46275.03;5094458;28;20196;-60
2024/01/18 06:16:28;;;;;;;26.40;18.30;;;-0.20;99.90;;;-141.84;87.62;51254.38;5092872;28;20242;-59
2024/01/18 06:18:57;;;;;;;26.43;18.23;;;-0.30;99.90;;;-141.84;86.43;45489.41;5092395;28;20222;-60
2024/01/18 06:21:26;;;;;;;26.80;18.80;;;-0.20;99.90;;;-141.84;87.34;48370.84;5092156;28;20219;-59
2024/01/18 06:23:55;;;;;;;25.70;17.13;;;-0.30;99.90;;;-141.84;87.55;50467.75;5093340;28;20229;-59
2024/01/18 06:26:23;;;;;;;29.30;19.00;;;-0.30;99.90;;;-141.84;87.59;51516.59;5092052;28;20220;-61
2024/01/18 06:28:51;;;;;;;28.33;17.97;;;-0.30;99.90;;;-141.84;87.59;51254.38;5093497;28;20213;-60
2024/01/18 06:31:26;;;;;;;26.80;18.07;;;-0.30;99.90;;;-141.84;86.60;46798.88;5093408;28;20219;-61
2024/01/18 06:33:56;;;;;;;28.43;18.23;;;-0.30;99.90;;;-141.84;86.62;45227.56;5082023;28;20235;-59
2024/01/18 06:36:25;;;;;;;26.00;17.17;;;-0.30;99.90;;;-141.84;87.07;47584.78;5088156;28;20216;-60
2024/01/18 06:38:54;;;;;;;28.80;18.67;;;-0.30;99.90;;;-141.84;87.92;53877.56;5091812;28;20728;-60
2024/01/18 06:41:22;;;;;;;25.43;18.00;;;-0.10;99.90;;;-141.84;88.50;56765.13;5090996;28;20202;-59
2024/01/18 06:43:50;;;;;;;27.07;18.37;;;-0.30;99.90;;;-141.84;88.73;57815.66;5064599;28;20201;-60
2024/01/18 06:46:19;;;;;;;27.70;18.20;;;-0.20;99.90;;;-141.84;89.20;60706.06;5063553;28;20251;-59
2024/01/18 06:48:52;;;;;;;27.47;17.93;;;-0.20;99.90;;;-141.84;89.43;62283.53;5071584;28;20223;-60
2024/01/18 06:51:22;;;;;;;29.77;18.83;;;-0.20;99.90;;;-141.84;86.18;47060.84;5072650;28;20266;-59
2024/01/18 06:53:53;;;;;;;25.20;17.77;;;-0.20;99.90;;;-141.84;85.45;36894.50;5063983;28;20312;-59
2024/01/18 06:56:21;;;;;;;27.83;18.47;;;-0.20;99.90;;;-141.84;85.83;39732.88;5070196;28;20262;-59
2024/01/18 06:58:50;;;;;;;27.70;17.43;;;-0.20;99.90;;;-141.84;86.72;46013.16;5070171;28;20200;-59
2024/01/18 07:01:19;;;;;;;27.10;18.23;;;-0.20;99.90;;;-141.84;86.84;47322.81;5063062;28;20235;-59
2024/01/18 07:03:47;;;;;;;29.43;18.07;;;-0.20;99.90;;;-141.84;85.83;41825.19;5085555;28;20732;-59
2024/01/18 07:06:16;;;;;;;26.43;18.23;;;-0.10;99.90;;;-141.84;86.66;44965.75;5092730;28;20737;-59
2024/01/18 07:08:44;;;;;;;25.67;18.07;;;-0.20;99.90;;;-141.84;86.39;44703.94;5092775;28;20269;-60
2024/01/18 07:11:13;;;;;;;26.70;18.37;;;-0.20;99.90;;;-141.84;85.70;40778.88;5093839;28;20279;-59
2024/01/18 07:13:42;;;;;;;28.30;18.43;;;-0.10;99.90;;;-141.84;83.22;25720.28;5092523;28;20616;-60
2024/01/18 07:16:10;;;;;;;24.47;17.40;;;-0.10;99.90;;;-141.84;80.72;20200.00;5092256;28;20654;-58
2024/01/18 07:18:39;;;;;;;25.63;17.10;;;-0.10;99.90;;;-141.84;82.05;21484.78;5092386;28;20235;-59
2024/01/18 07:21:07;;;;;;;25.27;17.60;;;-0.20;99.90;;;-141.84;83.14;24137.03;5092193;28;20273;-58
2024/01/18 07:23:35;;;;;;;25.43;16.83;;;-0.30;99.90;;;-141.84;81.49;21177.78;5091957;28;20743;-59
2024/01/18 07:26:04;;;;;;;24.63;16.87;;;-0.20;99.90;;;-141.84;82.33;22035.84;5092130;28;20757;-60
2024/01/18 07:28:34;;;;;;;26.63;18.00;;;-0.20;99.90;;;-141.84;83.06;24167.56;5087281;28;20241;-60
2024/01/18 07:31:03;;;;;;;25.50;17.47;;;-0.20;99.90;;;-141.84;83.31;24397.47;5091519;28;20223;-60
2024/01/18 07:33:31;;;;;;;25.37;17.23;;;-0.20;99.90;;;-141.84;83.26;25427.19;5091173;28;20280;-60
2024/01/18 07:36:00;;;;;;;26.33;17.47;;;-0.20;99.90;;;-141.84;84.33;28418.16;5090778;28;20398;-57
2024/01/18 07:38:28;;;;;;;24.47;17.90;;;-0.30;99.90;;;-141.84;86.01;39058.81;5084248;28;20200;-57
2024/01/18 07:40:56;;;;;;;27.20;18.07;;;-0.30;99.90;;;-141.84;86.00;44180.38;5071610;28;20670;-55
2024/01/18 07:43:25;;;;;;;29.13;17.90;;;-0.20;99.90;;;-141.84;84.90;32977.25;5076824;28;20301;-57
2024/01/18 07:45:54;;;;;;;24.73;17.73;;;-0.10;99.90;;;-141.84;84.90;33921.53;5066865;28;20217;-58
2024/01/18 07:48:22;;;;;;;27.50;18.87;;;-0.10;99.90;;;-141.84;85.18;35302.66;5080318;28;20347;-57
2024/01/18 07:50:51;;;;;;;24.93;17.73;;;-0.10;99.90;;;-141.84;83.94;28483.34;5077200;28;20330;-58
2024/01/18 07:53:19;;;;;;;27.40;17.80;;;-0.10;99.90;;;-141.84;84.80;32657.09;5082732;28;20245;-57
2024/01/18 07:55:47;;;;;;;27.93;18.33;;;-0.10;99.90;;;-141.84;82.67;24692.53;5091514;28;20294;-58
2024/01/18 07:58:15;;;;;;;27.83;19.10;;;0.10;99.90;;;-141.84;83.31;25905.50;5089786;28;20214;-58
2024/01/18 08:00:44;;;;;;;27.10;18.97;;;0.10;99.90;;;-141.84;83.25;26225.09;5093208;28;20742;-59
2024/01/18 08:03:18;;;;;;;28.07;19.20;;;0.10;99.90;;;-141.84;80.57;20200.00;5094668;28;20933;-56
2024/01/18 08:05:46;;;;;;;27.97;19.70;;;0.20;99.90;;;-141.84;81.88;21427.88;5095161;28;20864;-55
2024/01/18 08:08:18;;;;;;;27.53;19.53;;;0.20;99.90;;;-141.84;83.58;25813.91;5095153;28;20216;-57
2024/01/18 08:10:46;;;;;;;29.30;19.60;;;0.20;99.90;;;-141.84;85.35;35963.81;5095577;28;20641;-57
2024/01/18 08:13:18;;;;;;;29.07;19.57;;;0.10;99.90;;;-141.84;85.03;34619.16;5095245;28;20282;-68
2024/01/18 08:15:48;;;;;;;30.63;20.50;;;0.10;99.90;;;-141.84;84.37;33319.84;5094913;28;20690;-68
2024/01/18 08:18:18;;;;;;;27.93;19.27;;;0.10;99.90;;;-141.84;84.39;31495.00;5095453;28;20561;-68
2024/01/18 08:20:47;;;;;;;29.43;20.07;;;0.10;99.90;;;-141.84;85.79;39659.34;5095128;28;20250;-68
2024/01/18 08:23:18;;;;;;;28.60;18.73;;;0.10;99.90;;;-141.84;85.40;39250.81;5087042;28;20262;-68
2024/01/18 08:25:47;;;;;;;27.70;19.20;;;0.10;99.90;;;-141.84;84.53;33419.78;5060472;28;20241;-67
2024/01/18 08:28:18;;;;;;;33.13;20.87;;;0.10;99.90;;;-141.84;84.88;35063.91;5094524;28;20267;-68
2024/01/18 08:30:46;;;;;;;28.43;19.80;;;0.10;99.90;;;-141.84;82.49;23583.66;5059282;28;20224;-58
2024/01/18 08:33:20;;;;;;;28.90;19.17;;;0.20;99.90;;;-141.84;83.32;26050.03;5094579;28;20227;-57
2024/01/18 08:35:48;;;;;;;30.83;20.67;;;0.20;99.90;;;-141.84;83.87;29827.91;5094259;28;20227;-58
2024/01/18 08:38:20;;;;;;;30.67;20.67;;;0.20;99.90;;;-141.84;82.85;25071.03;5094914;28;20231;-58
2024/01/18 08:40:49;;;;;;;28.87;19.97;;;0.30;99.90;;;-141.84;82.92;24704.72;5095227;28;20322;-58
2024/01/18 08:43:22;;;;;;;25.07;18.37;;;0.30;99.90;;;-141.84;79.75;19618.75;5068610;28;20231;-56
2024/01/18 08:45:50;;;;;;;29.53;18.93;;;0.30;99.90;;;-141.84;80.17;19714.25;5065825;28;20659;-58
2024/01/18 08:48:22;;;;;;;26.10;18.93;;;0.30;99.90;;;-141.84;79.39;19301.72;5062686;28;20223;-58
2024/01/18 08:50:50;;;;;;;29.27;19.60;;;0.40;99.90;;;-141.84;79.43;19281.41;5083562;28;20763;-56
2024/01/18 08:53:23;;;;;;;28.93;19.80;;;0.70;99.90;;;-141.84;79.97;19657.34;5082692;28;20553;-55
2024/01/18 08:55:51;;;;;;;30.50;19.93;;;0.50;99.90;;;-141.84;79.95;19870.75;5063556;28;20263;-67
2024/01/18 08:58:24;;;;;;;28.20;19.80;;;0.60;99.90;;;-141.84;79.68;19439.91;5072627;28;20216;-70
2024/01/18 09:00:54;;;;;;;30.47;19.93;;;0.50;99.90;;;-141.84;80.47;19994.72;5065213;28;20649;-68
2024/01/18 09:03:26;;;;;;;26.93;19.80;;;0.60;99.90;;;-141.84;79.56;19452.09;5075902;28;20704;-68
2024/01/18 09:05:58;;;;;;;26.77;18.57;;;0.70;99.90;;;-141.84;77.44;18744.97;5094328;28;20227;-68
2024/01/18 09:08:26;;;;;;;28.07;19.27;;;0.50;99.90;;;-141.84;77.83;18734.81;5087937;28;20735;-67
2024/01/18 09:10:58;;;;;;;27.93;19.53;;;0.60;99.90;;;-141.84;78.54;18921.75;5095069;28;20243;-67
2024/01/18 09:13:26;;;;;;;27.27;19.47;;;0.60;99.90;;;-141.84;76.43;18474.75;5094428;28;20232;-68
2024/01/18 09:15:58;;;;;;;28.97;20.13;;;0.50;99.90;;;-141.84;78.49;18850.63;5094678;28;20216;-68
2024/01/18 09:18:27;;;;;;;27.90;20.10;;;0.60;99.90;;;-141.84;78.65;18980.66;5093692;28;20744;-68
2024/01/18 09:20:58;;;;;;;28.03;20.23;;;0.70;99.90;;;-141.84;77.95;18925.81;5094624;28;20219;-69
2024/01/18 09:23:26;;;;;;;28.27;21.27;;;0.80;99.90;;;-141.84;77.92;18765.28;5094580;28;21125;-67
2024/01/18 09:25:56;;;;;;;31.17;21.33;;;0.80;99.90;;;-141.84;76.97;18712.47;5095452;28;20215;-68
2024/01/18 09:28:24;;;;;;;32.73;21.43;;;0.90;99.90;;;-141.84;77.35;18651.50;5086623;28;20318;-68
2024/01/18 09:30:57;;;;;;;29.50;19.93;;;0.90;99.90;;;-141.84;77.16;18643.38;5093256;28;20216;-67
2024/01/18 09:33:27;;;;;;;32.00;20.77;;;0.90;99.90;;;-141.84;75.29;18446.31;5093806;28;20224;-68
2024/01/18 09:35:58;;;;;;;32.07;20.97;;;1.00;99.90;;;-141.84;75.53;18446.31;5095198;28;20937;-68
2024/01/18 09:38:29;;;;;;;33.67;21.27;;;1.00;99.90;;;-141.84;76.11;18493.03;5094519;28;20204;-67
2024/01/18 09:41:07;;;;;;;29.20;20.90;;;1.00;99.90;;;-141.84;76.15;18484.91;5095535;28;20260;-68
2024/01/18 09:43:39;;;;;;;29.73;21.03;;;1.00;99.90;;;-141.84;75.78;18486.94;5074522;28;20226;-67
2024/01/18 09:46:11;;;;;;;29.20;20.10;;;1.00;99.90;;;-141.84;75.54;18450.38;5080297;28;20278;-68
2024/01/18 09:48:45;;;;;;;30.03;20.90;;;1.00;99.90;;;-141.84;76.46;18584.47;5074149;28;20710;-67
2024/01/18 09:51:21;;;;;;;29.77;21.83;;;1.10;99.90;;;-141.84;76.43;18539.75;5071053;28;20218;-67
2024/01/18 09:53:54;;;;;;;31.17;21.70;;;1.10;99.90;;;-141.84;75.03;18425.97;5066935;28;20299;-67
2024/01/18 09:56:28;;;;;;;30.50;22.13;;;1.20;99.90;;;-141.84;71.97;18289.88;5038621;28;20195;-67
2024/01/18 09:58:59;;;;;;;31.73;20.73;;;1.20;99.90;;;-141.84;71.57;18253.31;5063459;28;20216;-68
2024/01/18 10:01:27;;;;;;;30.83;21.67;;;1.20;99.90;;;-141.84;73.31;18318.31;5088432;28;20224;-67
2024/01/18 10:03:59;;;;;;;28.90;21.13;;;1.10;99.90;;;-141.84;73.88;18371.13;5093883;28;20240;-68